Time;durP1;ratioP1;P1;durP2;ratioP2;P2;SDS_P1;SDS_P2;PMS_P1;PMS_P2;Temp;Humidity;BMP_temperature;BMP_pressure;BME280_temperature;BME280_humidity;BME280_pressure;Samples;Min_cycle;Max_cycle;Signal;HPM_P1;HPM_P2
2023/04/21 00:02:21;;;;;;;17.55;15.60;;;;;;;;;;4923326;29;20020;-81
2023/04/21 00:04:48;;;;;;;17.20;15.60;;;;;;;;;;4939613;29;20031;-81
2023/04/21 00:07:14;;;;;;;17.73;15.85;;;;;;;;;;4922560;29;20028;-81
2023/04/21 00:09:40;;;;;;;16.65;14.85;;;;;;;;;;4924081;29;20056;-81
2023/04/21 00:12:06;;;;;;;17.38;15.38;;;;;;;;;;4938893;29;20046;-82
2023/04/21 00:14:31;;;;;;;16.40;14.65;;;;;;;;;;4924199;29;20043;-84
2023/04/21 00:17:01;;;;;;;20.77;15.40;;;;;;;;;;4941011;29;20024;-83
2023/04/21 00:19:27;;;;;;;;;;;;;;;;;;4941065;29;20425;-83
2023/04/21 00:21:57;;;;;;;18.55;15.80;;;;;;;;;;4941261;29;19914;-82
2023/04/21 00:24:23;;;;;;;22.88;16.77;;;;;;;;;;4923772;29;20038;-83
2023/04/21 00:26:48;;;;;;;19.33;17.25;;;;;;;;;;4923275;29;20001;-82
2023/04/21 00:29:13;;;;;;;18.20;16.50;;;;;;;;;;4922461;29;20096;-83
2023/04/21 00:31:39;;;;;;;17.65;15.77;;;;;;;;;;4923143;29;20024;-83
2023/04/21 00:34:06;;;;;;;16.75;14.80;;;;;;;;;;4940367;29;20040;-83
2023/04/21 00:36:31;;;;;;;16.33;14.68;;;;;;;;;;4940659;29;20028;-83
2023/04/21 00:38:58;;;;;;;19.63;15.93;;;;;;;;;;4937913;29;20093;-84
2023/04/21 00:41:24;;;;;;;16.52;14.88;;;;;;;;;;4925431;29;20004;-84
2023/04/21 00:43:59;;;;;;;18.75;16.75;;;;;;;;;;4933394;29;20036;-84
2023/04/21 00:46:25;;;;;;;18.13;16.08;;;;;;;;;;4938882;29;20036;-82
2023/04/21 00:48:50;;;;;;;22.33;17.70;;;;;;;;;;4933854;29;20016;-82
2023/04/21 00:51:16;;;;;;;23.63;18.05;;;;;;;;;;4939218;29;20020;-82
2023/04/21 00:53:41;;;;;;;19.67;17.38;;;;;;;;;;4940232;29;20027;-81
2023/04/21 00:56:07;;;;;;;25.20;18.25;;;;;;;;;;4939166;29;20020;-82
2023/04/21 00:58:32;;;;;;;20.73;18.05;;;;;;;;;;4938845;29;20012;-82
2023/04/21 01:00:59;;;;;;;20.05;17.75;;;;;;;;;;4957377;29;20024;-82
2023/04/21 01:03:27;;;;;;;21.00;16.92;;;;;;;;;;4959753;28;20055;-82
2023/04/21 01:05:53;;;;;;;21.05;16.60;;;;;;;;;;4959159;29;19996;-82
2023/04/21 01:08:19;;;;;;;23.27;19.92;;;;;;;;;;4938874;29;20032;-81
2023/04/21 01:10:44;;;;;;;24.25;18.67;;;;;;;;;;4939591;29;20032;-84
2023/04/21 01:13:11;;;;;;;19.02;17.02;;;;;;;;;;4937953;29;20029;-81
2023/04/21 01:15:36;;;;;;;24.45;18.17;;;;;;;;;;4938603;29;20019;-81
2023/04/21 01:18:02;;;;;;;17.92;15.73;;;;;;;;;;4939516;29;20050;-82
2023/04/21 01:20:30;;;;;;;19.73;17.65;;;;;;;;;;4939080;29;20095;-81
2023/04/21 01:22:55;;;;;;;19.88;17.95;;;;;;;;;;4935945;29;20036;-81
2023/04/21 01:25:27;;;;;;;21.63;18.77;;;;;;;;;;4940089;29;20034;-82
2023/04/21 01:27:52;;;;;;;19.27;17.25;;;;;;;;;;4940143;29;20035;-82
2023/04/21 01:30:17;;;;;;;21.05;18.85;;;;;;;;;;4923155;29;20016;-81
2023/04/21 01:32:43;;;;;;;23.08;20.75;;;;;;;;;;4937415;29;20124;-81
2023/04/21 01:35:09;;;;;;;24.90;20.85;;;;;;;;;;4924181;29;20062;-82
2023/04/21 01:37:34;;;;;;;25.55;20.98;;;;;;;;;;4923472;29;20344;-83
2023/04/21 01:40:03;;;;;;;28.67;22.75;;;;;;;;;;4932947;29;20220;-82
2023/04/21 01:42:29;;;;;;;22.83;20.48;;;;;;;;;;4932667;29;20004;-82
2023/04/21 01:47:30;;;;;;;23.98;21.05;;;;;;;;;;4966898;23;20132;-83
2023/04/21 01:49:55;;;;;;;21.48;19.15;;;;;;;;;;4930326;29;20408;-82
2023/04/21 01:52:21;;;;;;;24.33;20.63;;;;;;;;;;4946155;29;20079;-81
2023/04/21 01:54:46;;;;;;;25.60;20.30;;;;;;;;;;4941083;29;20371;-82
2023/04/21 01:57:12;;;;;;;32.90;23.50;;;;;;;;;;4956687;28;20015;-81
2023/04/21 01:59:37;;;;;;;25.90;22.52;;;;;;;;;;4922635;29;20020;-81
2023/04/21 02:02:03;;;;;;;21.95;19.55;;;;;;;;;;4938903;29;20015;-81
2023/04/21 02:04:28;;;;;;;23.23;20.73;;;;;;;;;;4922213;29;20107;-82
2023/04/21 02:06:54;;;;;;;21.13;18.80;;;;;;;;;;4923597;29;20003;-82
2023/04/21 02:09:19;;;;;;;23.65;19.10;;;;;;;;;;4932880;29;20514;-82
2023/04/21 02:11:44;;;;;;;20.98;18.67;;;;;;;;;;4941514;29;20659;-82
2023/04/21 02:14:10;;;;;;;26.75;18.98;;;;;;;;;;4959014;29;20067;-82
2023/04/21 02:16:35;;;;;;;21.75;19.27;;;;;;;;;;4942274;29;20067;-81
2023/04/21 02:19:04;;;;;;;20.10;17.30;;;;;;;;;;4941244;29;20020;-82
2023/04/21 02:21:31;;;;;;;20.75;18.52;;;;;;;;;;4942013;29;20610;-82
2023/04/21 02:23:56;;;;;;;20.90;18.48;;;;;;;;;;4940517;29;20047;-83
2023/04/21 02:26:22;;;;;;;22.27;18.58;;;;;;;;;;4942621;29;20015;-82
2023/04/21 02:28:49;;;;;;;20.02;17.92;;;;;;;;;;4941614;29;20031;-83
2023/04/21 02:31:14;;;;;;;22.50;19.88;;;;;;;;;;4933732;29;20039;-83
2023/04/21 02:33:39;;;;;;;26.58;20.52;;;;;;;;;;4923830;29;20028;-82
2023/04/21 02:36:05;;;;;;;23.17;18.52;;;;;;;;;;4947707;29;20028;-82
2023/04/21 02:38:30;;;;;;;22.23;19.83;;;;;;;;;;4927205;29;20126;-82
2023/04/21 02:40:56;;;;;;;23.80;20.45;;;;;;;;;;4931720;29;20020;-83
2023/04/21 02:43:22;;;;;;;24.15;19.35;;;;;;;;;;4940025;28;20115;-82
2023/04/21 02:45:47;;;;;;;24.40;19.33;;;;;;;;;;4923186;29;20068;-83
2023/04/21 02:48:21;;;;;;;22.13;17.73;;;;;;;;;;4924341;29;20136;-83
2023/04/21 02:50:47;;;;;;;21.45;19.15;;;;;;;;;;4925202;29;20016;-81
2023/04/21 02:53:12;;;;;;;25.13;18.58;;;;;;;;;;5316533;23;20124;-81
2023/04/21 02:55:37;;;;;;;27.00;21.75;;;;;;;;;;4953860;29;20019;-80
2023/04/21 02:58:03;;;;;;;20.63;16.90;;;;;;;;;;4940160;29;20012;-81
2023/04/21 03:00:29;;;;;;;25.52;18.98;;;;;;;;;;4941578;29;20028;-81
2023/04/21 03:02:54;;;;;;;32.85;22.63;;;;;;;;;;4955785;29;20112;-80
2023/04/21 03:05:20;;;;;;;24.98;20.63;;;;;;;;;;4942530;29;20032;-82
2023/04/21 03:07:45;;;;;;;28.00;20.25;;;;;;;;;;4942136;28;20107;-82
2023/04/21 03:10:11;;;;;;;24.65;18.88;;;;;;;;;;4950169;28;20080;-82
2023/04/21 03:12:36;;;;;;;27.58;21.55;;;;;;;;;;4921289;29;20042;-80
2023/04/21 03:15:02;;;;;;;22.48;20.08;;;;;;;;;;4939953;29;20048;-83
2023/04/21 03:17:28;;;;;;;27.35;24.02;;;;;;;;;;4955474;29;20083;-81
2023/04/21 03:19:53;;;;;;;28.58;23.60;;;;;;;;;;4944517;29;20004;-81
2023/04/21 03:22:19;;;;;;;27.30;20.85;;;;;;;;;;4961657;29;20030;-81
2023/04/21 03:24:44;;;;;;;29.23;23.23;;;;;;;;;;4961476;28;20062;-82
2023/04/21 03:27:10;;;;;;;27.75;21.15;;;;;;;;;;4962085;29;20093;-80
2023/04/21 03:29:35;;;;;;;28.65;23.17;;;;;;;;;;4944345;29;20032;-82
2023/04/21 03:32:01;;;;;;;25.55;20.83;;;;;;;;;;4959755;29;20027;-82
2023/04/21 03:34:26;;;;;;;27.95;21.58;;;;;;;;;;4942840;29;20004;-81
2023/04/21 03:36:51;;;;;;;28.00;19.33;;;;;;;;;;4942037;29;20042;-81
2023/04/21 03:39:17;;;;;;;31.88;25.15;;;;;;;;;;4960380;29;20067;-81
2023/04/21 03:41:42;;;;;;;26.40;23.58;;;;;;;;;;4945454;29;20091;-82
2023/04/21 03:44:08;;;;;;;25.40;21.83;;;;;;;;;;4938016;29;20100;-82
2023/04/21 03:46:33;;;;;;;25.48;20.00;;;;;;;;;;4905250;29;20029;-82
2023/04/21 03:48:59;;;;;;;30.00;23.90;;;;;;;;;;4924047;29;20007;-82
2023/04/21 03:51:26;;;;;;;29.27;24.75;;;;;;;;;;4908412;29;20016;-82
2023/04/21 03:53:51;;;;;;;37.42;23.45;;;;;;;;;;4935351;29;20056;-80
2023/04/21 03:56:16;;;;;;;28.95;23.10;;;;;;;;;;4906174;29;20043;-79
2023/04/21 03:58:42;;;;;;;26.67;21.17;;;;;;;;;;4920129;29;20028;-80
2023/04/21 04:01:07;;;;;;;20.88;18.73;;;;;;;;;;4915500;29;20036;-80
2023/04/21 04:03:33;;;;;;;22.83;18.55;;;;;;;;;;4930574;29;20040;-80
2023/04/21 04:05:58;;;;;;;18.50;16.00;;;;;;;;;;4935822;29;20445;-81
2023/04/21 04:08:24;;;;;;;17.42;15.45;;;;;;;;;;4935674;29;20028;-81
2023/04/21 04:10:49;;;;;;;17.23;15.30;;;;;;;;;;4917587;29;20028;-81
2023/04/21 04:13:15;;;;;;;19.23;15.57;;;;;;;;;;4915606;29;20024;-81
2023/04/21 04:15:40;;;;;;;19.70;17.60;;;;;;;;;;4914080;29;20023;-81
2023/04/21 04:18:05;;;;;;;18.95;17.02;;;;;;;;;;4911185;29;20055;-81
2023/04/21 04:20:31;;;;;;;23.33;19.08;;;;;;;;;;4930728;29;20098;-80
2023/04/21 04:22:56;;;;;;;16.23;14.63;;;;;;;;;;4929379;29;20067;-80
2023/04/21 04:25:22;;;;;;;19.63;17.58;;;;;;;;;;4930879;29;20030;-80
2023/04/21 04:27:48;;;;;;;15.43;13.82;;;;;;;;;;4917708;29;20016;-81
2023/04/21 04:30:13;;;;;;;16.70;15.00;;;;;;;;;;4915492;29;20032;-80
2023/04/21 04:32:40;;;;;;;15.75;14.13;;;;;;;;;;4934807;29;20035;-80
2023/04/21 04:35:05;;;;;;;14.52;13.13;;;;;;;;;;4934680;29;20039;-80
2023/04/21 04:37:33;;;;;;;16.73;15.13;;;;;;;;;;4919639;29;20040;-80
2023/04/21 04:39:58;;;;;;;16.10;14.63;;;;;;;;;;4934278;29;20023;-80
2023/04/21 04:42:24;;;;;;;13.13;11.93;;;;;;;;;;4936039;29;20020;-80
2023/04/21 04:44:52;;;;;;;12.65;11.43;;;;;;;;;;4914228;29;20038;-80
2023/04/21 04:47:17;;;;;;;13.00;11.65;;;;;;;;;;4912664;29;20028;-80
2023/04/21 04:49:43;;;;;;;12.25;11.10;;;;;;;;;;4909091;29;20024;-80
2023/04/21 04:52:08;;;;;;;14.10;11.15;;;;;;;;;;4914025;29;20023;-81
2023/04/21 04:54:33;;;;;;;12.32;10.70;;;;;;;;;;4930126;29;20075;-80
2023/04/21 04:56:59;;;;;;;12.40;11.23;;;;;;;;;;4928710;29;20053;-81
2023/04/21 04:59:25;;;;;;;13.50;12.18;;;;;;;;;;4914228;29;20031;-82
2023/04/21 05:01:50;;;;;;;14.20;12.82;;;;;;;;;;4917969;29;20033;-81
2023/04/21 05:04:16;;;;;;;13.38;12.35;;;;;;;;;;4936184;29;20092;-81
2023/04/21 05:06:41;;;;;;;13.70;12.48;;;;;;;;;;4934387;29;20016;-80
2023/04/21 05:09:07;;;;;;;13.15;11.80;;;;;;;;;;4933846;29;20055;-80
2023/04/21 05:11:32;;;;;;;15.32;12.93;;;;;;;;;;4933674;29;20028;-83
2023/04/21 05:13:58;;;;;;;13.80;11.73;;;;;;;;;;4937166;29;20059;-81
2023/04/21 05:16:23;;;;;;;11.68;10.50;;;;;;;;;;4921554;29;20071;-80
2023/04/21 05:18:52;;;;;;;10.98;9.88;;;;;;;;;;4918131;29;20031;-84
2023/04/21 05:21:26;;;;;;;10.40;9.40;;;;;;;;;;4885500;29;20995;-83
2023/04/21 05:23:51;;;;;;;9.65;8.70;;;;;;;;;;4893945;29;20025;-84
2023/04/21 05:26:17;;;;;;;12.75;10.93;;;;;;;;;;4939526;29;20008;-82
2023/04/21 05:28:42;;;;;;;14.00;11.88;;;;;;;;;;4942762;29;20005;-80
2023/04/21 05:31:07;;;;;;;11.90;10.90;;;;;;;;;;4925869;29;20038;-80
2023/04/21 05:33:33;;;;;;;14.23;12.63;;;;;;;;;;4942108;29;20060;-81
2023/04/21 05:35:58;;;;;;;12.57;11.47;;;;;;;;;;4912740;29;20421;-83
2023/04/21 05:38:23;;;;;;;10.60;9.55;;;;;;;;;;4903961;29;20285;-82
2023/04/21 05:40:55;;;;;;;11.13;10.03;;;;;;;;;;4883477;29;20035;-83
2023/04/21 05:43:21;;;;;;;10.32;9.38;;;;;;;;;;4887027;29;20044;-85
2023/04/21 05:45:46;;;;;;;10.07;9.18;;;;;;;;;;4885655;29;20027;-83
2023/04/21 05:48:11;;;;;;;7.88;7.28;;;;;;;;;;4888285;29;20024;-82
2023/04/21 05:50:37;;;;;;;8.30;7.70;;;;;;;;;;4887904;29;20122;-82
2023/04/21 05:53:02;;;;;;;8.20;7.60;;;;;;;;;;4904695;29;20423;-82
2023/04/21 05:55:27;;;;;;;8.47;7.87;;;;;;;;;;4900919;29;20021;-82
2023/04/21 05:57:53;;;;;;;8.40;7.73;;;;;;;;;;4903542;29;20833;-82
2023/04/21 06:00:18;;;;;;;7.77;7.17;;;;;;;;;;4903044;29;20031;-81
2023/04/21 06:02:43;;;;;;;10.98;8.85;;;;;;;;;;4887117;29;20398;-81
2023/04/21 06:05:10;;;;;;;9.83;9.00;;;;;;;;;;4904963;29;20048;-81
2023/04/21 06:07:36;;;;;;;9.30;8.50;;;;;;;;;;4887405;29;20797;-84
2023/04/21 06:10:01;;;;;;;8.60;7.65;;;;;;;;;;4904040;29;20397;-81
2023/04/21 06:12:27;;;;;;;7.40;6.80;;;;;;;;;;4887555;29;20024;-82
2023/04/21 06:14:56;;;;;;;8.30;7.57;;;;;;;;;;4880635;29;20042;-77
2023/04/21 06:17:21;;;;;;;8.07;7.47;;;;;;;;;;4887559;29;20051;-77
2023/04/21 06:19:51;;;;;;;10.55;8.43;;;;;;;;;;4885563;29;20020;-77
2023/04/21 06:22:17;;;;;;;9.32;8.63;;;;;;;;;;4886575;29;20024;-77
2023/04/21 06:24:42;;;;;;;8.90;8.07;;;;;;;;;;4903189;29;20836;-78
2023/04/21 06:27:13;;;;;;;18.23;9.67;;;;;;;;;;4903596;29;20355;-78
2023/04/21 06:29:38;;;;;;;10.68;9.70;;;;;;;;;;4900549;29;20280;-80
2023/04/21 06:32:04;;;;;;;10.20;9.20;;;;;;;;;;4877857;29;20024;-78
2023/04/21 06:34:29;;;;;;;9.20;8.10;;;;;;;;;;4884789;29;20150;-79
2023/04/21 06:36:54;;;;;;;9.73;8.82;;;;;;;;;;4900165;29;20111;-79
2023/04/21 06:39:20;;;;;;;9.53;8.73;;;;;;;;;;4885408;29;20751;-79
2023/04/21 06:41:45;;;;;;;8.40;7.70;;;;;;;;;;4886053;29;20272;-79
2023/04/21 06:44:13;;;;;;;8.35;7.57;;;;;;;;;;4879915;29;20300;-79
2023/04/21 06:46:39;;;;;;;9.77;8.05;;;;;;;;;;4880459;29;20012;-79
2023/04/21 06:49:05;;;;;;;7.82;7.22;;;;;;;;;;4896882;29;20445;-80
2023/04/21 06:51:31;;;;;;;7.40;6.63;;;;;;;;;;4880479;29;20062;-79
2023/04/21 06:53:56;;;;;;;7.78;6.88;;;;;;;;;;4879942;29;20043;-82
2023/04/21 06:56:21;;;;;;;8.37;7.70;;;;;;;;;;4879656;29;20051;-80
2023/04/21 06:58:47;;;;;;;10.05;7.22;;;;;;;;;;4891153;29;20102;-82
2023/04/21 07:01:12;;;;;;;9.90;7.07;;;;;;;;;;4895054;29;20028;-82
2023/04/21 07:03:37;;;;;;;7.75;6.97;;;;;;;;;;4893035;29;20418;-81
2023/04/21 07:06:03;;;;;;;8.00;7.30;;;;;;;;;;4877743;29;20087;-80
2023/04/21 07:08:28;;;;;;;8.48;7.82;;;;;;;;;;4879132;29;20036;-82
2023/04/21 07:10:53;;;;;;;7.20;6.60;;;;;;;;;;4880798;29;20027;-82
2023/04/21 07:13:18;;;;;;;9.40;7.67;;;;;;;;;;4881958;29;20028;-84
2023/04/21 07:15:44;;;;;;;8.83;7.60;;;;;;;;;;4880461;29;20502;-81
2023/04/21 07:18:09;;;;;;;9.03;8.23;;;;;;;;;;4897468;29;20074;-85
2023/04/21 07:20:34;;;;;;;10.00;9.07;;;;;;;;;;4881564;29;20363;-81
2023/04/21 07:23:00;;;;;;;10.90;9.80;;;;;;;;;;4902009;29;20330;-81
2023/04/21 07:25:25;;;;;;;9.73;8.90;;;;;;;;;;4899485;29;20058;-82
2023/04/21 07:27:50;;;;;;;12.97;9.50;;;;;;;;;;4901771;29;20294;-81
2023/04/21 07:30:15;;;;;;;10.87;9.77;;;;;;;;;;4900892;29;20364;-82
2023/04/21 07:32:41;;;;;;;10.90;9.50;;;;;;;;;;4891008;29;20490;-82
2023/04/21 07:35:06;;;;;;;10.30;9.27;;;;;;;;;;4880624;29;20224;-82
2023/04/21 07:37:32;;;;;;;11.10;10.10;;;;;;;;;;4901253;29;20036;-82
2023/04/21 07:39:57;;;;;;;10.82;9.98;;;;;;;;;;4902820;29;20046;-82
2023/04/21 07:42:23;;;;;;;11.57;10.35;;;;;;;;;;4884372;29;20478;-82
2023/04/21 07:44:48;;;;;;;10.77;9.88;;;;;;;;;;4885890;29;20046;-83
2023/04/21 07:47:14;;;;;;;10.80;9.80;;;;;;;;;;4886312;29;20032;-81
2023/04/21 07:49:39;;;;;;;11.57;10.52;;;;;;;;;;4903464;29;20068;-82
2023/04/21 07:52:04;;;;;;;10.95;9.93;;;;;;;;;;4902319;29;20103;-82
2023/04/21 07:54:30;;;;;;;12.43;9.68;;;;;;;;;;4900408;29;20101;-84
2023/04/21 07:56:55;;;;;;;10.40;9.50;;;;;;;;;;4886504;29;20119;-83
2023/04/21 07:59:20;;;;;;;9.55;8.65;;;;;;;;;;4886324;29;20028;-82
2023/04/21 08:01:46;;;;;;;8.80;8.10;;;;;;;;;;4903450;29;20861;-80
2023/04/21 08:04:11;;;;;;;8.20;7.50;;;;;;;;;;4899364;29;20414;-83
2023/04/21 08:06:36;;;;;;;8.50;7.80;;;;;;;;;;4899223;29;20102;-83
2023/04/21 08:09:02;;;;;;;9.02;8.23;;;;;;;;;;4906145;29;20276;-81
2023/04/21 08:11:27;;;;;;;9.88;7.80;;;;;;;;;;4889465;29;20510;-82
2023/04/21 08:13:53;;;;;;;10.57;8.82;;;;;;;;;;4889352;29;20032;-84
2023/04/21 08:16:18;;;;;;;10.07;9.13;;;;;;;;;;4881572;29;20021;-85
2023/04/21 08:18:43;;;;;;;8.48;7.63;;;;;;;;;;4902621;29;20031;-83
2023/04/21 08:21:09;;;;;;;8.65;7.78;;;;;;;;;;4894748;29;20486;-83
2023/04/21 08:23:34;;;;;;;7.28;6.60;;;;;;;;;;4881141;29;20131;-84
2023/04/21 08:26:00;;;;;;;9.82;7.88;;;;;;;;;;4883187;29;20020;-84
2023/04/21 08:28:26;;;;;;;8.45;7.68;;;;;;;;;;4901679;29;20270;-82
2023/04/21 08:30:51;;;;;;;7.33;6.73;;;;;;;;;;4906936;29;20168;-84
2023/04/21 08:33:16;;;;;;;8.17;7.33;;;;;;;;;;4889124;29;20284;-83
2023/04/21 08:35:41;;;;;;;7.33;6.00;;;;;;;;;;4903385;29;20370;-84
2023/04/21 08:38:07;;;;;;;9.17;6.63;;;;;;;;;;4888894;29;20276;-85
2023/04/21 08:40:34;;;;;;;10.65;6.63;;;;;;;;;;4904622;29;20393;-81
2023/04/21 08:43:00;;;;;;;9.52;7.25;;;;;;;;;;4901282;29;20787;-79
2023/04/21 08:45:26;;;;;;;7.07;6.15;;;;;;;;;;4886768;29;20028;-78
2023/04/21 08:47:55;;;;;;;7.35;6.75;;;;;;;;;;4899716;29;20077;-80
2023/04/21 08:50:24;;;;;;;7.72;7.05;;;;;;;;;;4901249;29;20185;-78
2023/04/21 08:52:49;;;;;;;7.53;6.93;;;;;;;;;;4906454;29;20478;-78
2023/04/21 08:55:15;;;;;;;6.73;6.23;;;;;;;;;;4905864;29;20040;-78
2023/04/21 08:57:40;;;;;;;6.80;6.15;;;;;;;;;;4904716;29;20347;-81
2023/04/21 09:00:06;;;;;;;7.20;5.70;;;;;;;;;;4884244;29;20118;-75
2023/04/21 09:02:31;;;;;;;7.32;6.10;;;;;;;;;;4901148;29;20104;-75
2023/04/21 09:04:58;;;;;;;7.00;6.40;;;;;;;;;;4902599;29;20032;-75
2023/04/21 09:07:30;;;;;;;6.38;5.82;;;;;;;;;;4902357;29;20873;-76
2023/04/21 09:09:55;;;;;;;6.30;5.68;;;;;;;;;;4904022;29;20127;-76
2023/04/21 09:12:21;;;;;;;5.85;5.35;;;;;;;;;;4903785;29;20106;-75
2023/04/21 09:14:46;;;;;;;5.45;5.03;;;;;;;;;;4905549;29;20479;-76
2023/04/21 09:17:11;;;;;;;5.53;5.13;;;;;;;;;;4891692;29;20016;-76
2023/04/21 09:19:36;;;;;;;5.00;4.60;;;;;;;;;;4887914;29;20304;-76
2023/04/21 09:22:02;;;;;;;5.35;4.45;;;;;;;;;;4905357;29;20102;-76
2023/04/21 09:24:28;;;;;;;5.22;4.72;;;;;;;;;;4904807;29;20040;-76
2023/04/21 09:26:53;;;;;;;4.80;4.35;;;;;;;;;;4905023;29;20020;-76
2023/04/21 09:29:22;;;;;;;5.35;3.67;;;;;;;;;;4887689;29;20450;-76
2023/04/21 09:31:48;;;;;;;5.35;3.58;;;;;;;;;;4904283;29;20029;-76
2023/04/21 09:34:23;;;;;;;4.82;4.25;;;;;;;;;;4902114;29;20491;-76
2023/04/21 09:36:57;;;;;;;4.20;3.80;;;;;;;;;;4903666;29;20076;-76
2023/04/21 09:39:23;;;;;;;4.35;4.05;;;;;;;;;;4903487;29;20039;-76
2023/04/21 09:41:48;;;;;;;6.55;4.88;;;;;;;;;;4904310;29;20031;-76
2023/04/21 09:44:13;;;;;;;6.37;4.83;;;;;;;;;;4903048;29;20040;-76
2023/04/21 09:46:42;;;;;;;4.97;4.57;;;;;;;;;;4903055;29;20264;-77
2023/04/21 09:49:09;;;;;;;6.65;4.65;;;;;;;;;;4903647;29;20389;-76
2023/04/21 09:51:35;;;;;;;6.30;4.53;;;;;;;;;;4903728;29;20025;-76
2023/04/21 09:54:06;;;;;;;5.22;4.82;;;;;;;;;;4904652;29;20059;-76
2023/04/21 09:56:34;;;;;;;4.70;4.03;;;;;;;;;;4887334;29;20099;-76
2023/04/21 09:59:00;;;;;;;4.70;3.95;;;;;;;;;;4899443;29;20470;-76
2023/04/21 10:01:26;;;;;;;4.57;4.18;;;;;;;;;;4899294;29;20039;-76
2023/04/21 10:03:52;;;;;;;4.13;3.72;;;;;;;;;;4887390;29;20605;-75
2023/04/21 10:06:17;;;;;;;4.55;4.20;;;;;;;;;;4885792;29;20028;-77
2023/04/21 10:08:43;;;;;;;4.50;4.10;;;;;;;;;;4886394;29;20072;-76
2023/04/21 10:11:09;;;;;;;4.05;3.72;;;;;;;;;;4882133;29;20080;-76
2023/04/21 10:13:35;;;;;;;5.65;4.65;;;;;;;;;;4904136;29;20028;-75
2023/04/21 10:16:06;;;;;;;4.82;4.43;;;;;;;;;;4904240;29;20136;-75
2023/04/21 10:18:33;;;;;;;4.57;3.80;;;;;;;;;;4881550;29;20092;-74
2023/04/21 10:21:01;;;;;;;3.78;3.47;;;;;;;;;;4898558;29;20040;-74
2023/04/21 10:23:36;;;;;;;4.17;3.87;;;;;;;;;;4902011;29;20852;-74
2023/04/21 10:26:02;;;;;;;5.10;3.97;;;;;;;;;;4904189;29;20036;-75
2023/04/21 10:28:40;;;;;;;4.55;4.18;;;;;;;;;;4901552;29;20016;-75
2023/04/21 10:31:14;;;;;;;5.72;4.38;;;;;;;;;;4886135;29;20024;-75
2023/04/21 10:33:40;;;;;;;5.15;4.75;;;;;;;;;;4903770;29;20162;-77
2023/04/21 10:36:06;;;;;;;5.77;4.50;;;;;;;;;;4901633;29;20073;-75
2023/04/21 10:38:41;;;;;;;9.10;4.85;;;;;;;;;;4903344;29;20268;-76
2023/04/21 10:41:28;;;;;;;5.78;4.90;;;;;;;;;;4897679;29;20059;-77
2023/04/21 10:43:56;;;;;;;6.85;5.25;;;;;;;;;;4876490;29;20078;-76
2023/04/21 10:46:34;;;;;;;5.10;4.65;;;;;;;;;;4901096;29;20048;-78
2023/04/21 10:49:23;;;;;;;5.53;4.95;;;;;;;;;;4886155;29;20028;-77
2023/04/21 10:51:58;;;;;;;7.15;5.60;;;;;;;;;;4882555;29;20039;-77
2023/04/21 10:54:24;;;;;;;8.25;4.80;;;;;;;;;;4903858;29;20509;-77
2023/04/21 10:56:57;;;;;;;4.75;4.32;;;;;;;;;;4901199;29;20028;-79
2023/04/21 10:59:23;;;;;;;5.70;4.90;;;;;;;;;;4879180;29;20036;-78
2023/04/21 11:01:48;;;;;;;5.00;4.50;;;;;;;;;;4885240;29;20084;-78
2023/04/21 11:04:14;;;;;;;8.00;4.35;;;;;;;;;;4886841;29;20086;-77
2023/04/21 11:06:40;;;;;;;4.30;3.90;;;;;;;;;;4903367;29;20020;-77
2023/04/21 11:09:05;;;;;;;4.43;4.05;;;;;;;;;;4886116;29;20477;-76
2023/04/21 11:11:30;;;;;;;5.22;3.60;;;;;;;;;;4885690;29;20054;-74
2023/04/21 11:13:58;;;;;;;6.95;5.88;;;;;;;;;;4885968;29;20518;-75
2023/04/21 11:16:24;;;;;;;4.38;3.85;;;;;;;;;;4903619;29;20084;-77
2023/04/21 11:18:50;;;;;;;4.80;3.88;;;;;;;;;;4902804;29;20028;-76
2023/04/21 11:21:20;;;;;;;7.78;3.65;;;;;;;;;;4903820;29;20032;-76
2023/04/21 11:23:55;;;;;;;6.13;3.40;;;;;;;;;;4901581;29;20179;-77
2023/04/21 11:26:31;;;;;;;5.80;3.75;;;;;;;;;;4896327;29;20111;-76
2023/04/21 11:28:58;;;;;;;4.00;3.67;;;;;;;;;;4899413;29;20817;-77
2023/04/21 11:31:27;;;;;;;4.25;3.15;;;;;;;;;;4886104;29;20536;-76
2023/04/21 11:33:54;;;;;;;3.15;2.80;;;;;;;;;;4885151;29;20517;-76
2023/04/21 11:36:20;;;;;;;3.00;2.70;;;;;;;;;;4880504;29;20040;-76
2023/04/21 11:38:45;;;;;;;4.10;2.80;;;;;;;;;;4876842;29;20032;-77
2023/04/21 11:41:11;;;;;;;4.05;3.22;;;;;;;;;;4887034;29;20930;-77
2023/04/21 11:43:37;;;;;;;4.78;3.35;;;;;;;;;;4885678;29;20496;-74
2023/04/21 11:46:32;;;;;;;3.97;3.08;;;;;;;;;;4906092;29;20079;-73
2023/04/21 11:49:01;;;;;;;3.70;2.95;;;;;;;;;;4870151;29;20406;-74
2023/04/21 11:51:33;;;;;;;4.50;3.00;;;;;;;;;;4906435;29;20094;-76
2023/04/21 11:53:58;;;;;;;6.75;4.18;;;;;;;;;;4903876;29;20056;-77
2023/04/21 11:56:24;;;;;;;5.68;3.90;;;;;;;;;;4887487;29;20074;-76
2023/04/21 11:58:51;;;;;;;4.47;3.30;;;;;;;;;;4883301;29;20024;-76
2023/04/21 12:01:16;;;;;;;4.30;3.90;;;;;;;;;;4902038;29;20035;-75
2023/04/21 12:03:41;;;;;;;4.47;3.85;;;;;;;;;;4885665;29;20055;-75
2023/04/21 12:06:07;;;;;;;3.97;3.65;;;;;;;;;;4902634;29;20068;-76
2023/04/21 12:08:33;;;;;;;3.88;3.58;;;;;;;;;;4900343;29;20115;-77
2023/04/21 12:10:58;;;;;;;3.90;3.40;;;;;;;;;;4900072;29;20031;-76
2023/04/21 12:13:27;;;;;;;5.10;3.60;;;;;;;;;;4885175;29;20417;-76
2023/04/21 12:15:52;;;;;;;3.72;3.40;;;;;;;;;;4900821;29;20114;-77
2023/04/21 12:18:17;;;;;;;4.00;3.10;;;;;;;;;;4899983;29;20068;-76
2023/04/21 12:20:50;;;;;;;3.38;3.08;;;;;;;;;;4886620;29;20805;-76
2023/04/21 12:23:15;;;;;;;3.22;2.75;;;;;;;;;;4882932;29;20043;-76
2023/04/21 12:25:41;;;;;;;3.25;2.05;;;;;;;;;;4885930;29;20419;-75
2023/04/21 12:28:07;;;;;;;5.43;2.50;;;;;;;;;;4881011;29;20039;-76
2023/04/21 12:30:32;;;;;;;3.38;2.50;;;;;;;;;;4898405;29;20495;-76
2023/04/21 12:32:57;;;;;;;2.72;2.38;;;;;;;;;;4903462;29;20478;-77
2023/04/21 12:35:23;;;;;;;4.17;2.60;;;;;;;;;;4885605;29;20024;-77
2023/04/21 12:37:48;;;;;;;2.40;2.20;;;;;;;;;;4891603;29;20276;-78
2023/04/21 12:40:13;;;;;;;2.42;2.17;;;;;;;;;;4893390;29;20526;-77
2023/04/21 12:42:38;;;;;;;1.83;1.70;;;;;;;;;;4880591;29;20032;-78
2023/04/21 12:45:04;;;;;;;1.80;1.70;;;;;;;;;;4902585;29;20036;-78
2023/04/21 12:47:30;;;;;;;2.10;1.90;;;;;;;;;;4905104;29;20024;-80
2023/04/21 12:49:55;;;;;;;6.68;1.80;;;;;;;;;;4905458;29;20036;-79
2023/04/21 12:52:20;;;;;;;2.20;1.80;;;;;;;;;;4886676;29;20127;-79
2023/04/21 12:54:46;;;;;;;2.22;1.90;;;;;;;;;;4888767;29;20542;-78
2023/04/21 12:57:12;;;;;;;5.35;2.10;;;;;;;;;;4887029;29;20458;-78
2023/04/21 12:59:37;;;;;;;3.17;2.35;;;;;;;;;;4903519;29;20039;-77
2023/04/21 13:02:02;;;;;;;2.45;2.25;;;;;;;;;;4904963;29;20399;-76
2023/04/21 13:04:28;;;;;;;2.93;2.50;;;;;;;;;;4885302;29;20390;-76
2023/04/21 13:06:53;;;;;;;2.13;1.92;;;;;;;;;;4905684;29;21207;-76
2023/04/21 13:09:18;;;;;;;2.33;2.13;;;;;;;;;;4905360;29;20076;-77
2023/04/21 13:11:44;;;;;;;2.75;2.22;;;;;;;;;;4889081;29;20031;-77
2023/04/21 13:14:09;;;;;;;2.10;1.95;;;;;;;;;;4905641;29;20075;-77
2023/04/21 13:16:35;;;;;;;4.20;2.28;;;;;;;;;;4906182;29;20513;-77
2023/04/21 13:19:00;;;;;;;3.05;2.85;;;;;;;;;;4905533;29;20028;-76
2023/04/21 13:21:25;;;;;;;3.35;3.15;;;;;;;;;;4899428;29;20841;-76
2023/04/21 13:23:51;;;;;;;3.40;3.20;;;;;;;;;;4907251;29;20498;-77
2023/04/21 13:26:16;;;;;;;4.03;3.72;;;;;;;;;;4903824;29;20355;-76
2023/04/21 13:28:42;;;;;;;3.78;3.45;;;;;;;;;;4907364;29;20020;-76
2023/04/21 13:31:07;;;;;;;4.85;3.63;;;;;;;;;;4906649;29;20391;-76
2023/04/21 13:33:34;;;;;;;6.13;3.47;;;;;;;;;;4906680;29;20526;-76
2023/04/21 13:36:00;;;;;;;3.85;3.30;;;;;;;;;;4887055;29;20016;-76
2023/04/21 13:38:25;;;;;;;3.22;2.92;;;;;;;;;;4892441;29;20013;-76
2023/04/21 13:40:50;;;;;;;3.43;2.50;;;;;;;;;;4892208;29;20119;-76
2023/04/21 13:43:15;;;;;;;2.83;2.60;;;;;;;;;;4893251;29;20297;-76
2023/04/21 13:45:41;;;;;;;3.65;2.67;;;;;;;;;;4872741;29;20323;-77
2023/04/21 13:48:06;;;;;;;3.90;2.50;;;;;;;;;;4895372;29;20028;-77
2023/04/21 13:50:31;;;;;;;2.50;2.30;;;;;;;;;;4897086;29;20055;-77
2023/04/21 13:52:56;;;;;;;3.30;2.35;;;;;;;;;;4891270;29;20072;-76
2023/04/21 13:55:22;;;;;;;2.67;2.47;;;;;;;;;;4889042;29;20119;-75
2023/04/21 13:57:47;;;;;;;2.85;2.60;;;;;;;;;;4879985;29;20689;-77
2023/04/21 14:00:13;;;;;;;3.13;2.70;;;;;;;;;;4880326;29;20020;-77
2023/04/21 14:02:38;;;;;;;4.03;2.40;;;;;;;;;;4883068;29;20028;-76
2023/04/21 14:05:04;;;;;;;6.85;3.22;;;;;;;;;;4878040;29;20059;-76
2023/04/21 14:07:29;;;;;;;5.15;2.65;;;;;;;;;;4892299;29;20019;-75
2023/04/21 14:09:55;;;;;;;4.20;2.78;;;;;;;;;;4889367;29;20066;-76
2023/04/21 14:12:20;;;;;;;3.00;2.40;;;;;;;;;;4895477;29;20028;-76
2023/04/21 14:14:46;;;;;;;4.72;2.53;;;;;;;;;;4887344;29;20035;-75
2023/04/21 14:17:11;;;;;;;2.90;2.58;;;;;;;;;;4902432;29;20012;-76
2023/04/21 14:19:36;;;;;;;2.88;2.65;;;;;;;;;;4895469;29;20111;-76
2023/04/21 14:22:02;;;;;;;3.57;2.53;;;;;;;;;;4890584;29;20084;-76
2023/04/21 14:24:28;;;;;;;2.58;2.38;;;;;;;;;;4892474;29;21225;-76
2023/04/21 14:26:55;;;;;;;3.95;2.65;;;;;;;;;;4880748;29;20501;-76
2023/04/21 14:29:21;;;;;;;3.00;2.72;;;;;;;;;;4867092;29;20024;-76
2023/04/21 14:31:46;;;;;;;3.28;2.70;;;;;;;;;;4879441;29;20815;-76